createdAt,value
2022-12-13T00:00:08.603Z,-1.10
2022-12-13T00:05:13.200Z,-1.10
2022-12-13T00:10:16.670Z,-1.30
2022-12-13T00:15:20.105Z,-1.30
2022-12-13T00:20:23.145Z,-1.40
2022-12-13T00:25:26.139Z,-1.50
2022-12-13T00:30:31.755Z,-1.50
2022-12-13T00:35:42.026Z,-1.60
2022-12-13T00:40:44.953Z,-1.60
2022-12-13T00:45:48.202Z,-1.60
2022-12-13T00:50:51.085Z,-1.70
2022-12-13T00:55:54.370Z,-1.70
2022-12-13T01:01:07.710Z,-1.70
2022-12-13T01:06:22.058Z,-1.80
2022-12-13T01:11:25.574Z,-1.80
2022-12-13T01:16:28.801Z,-1.80
2022-12-13T01:21:32.036Z,-1.80
2022-12-13T01:26:35.150Z,-1.80
2022-12-13T01:31:41.832Z,-1.80
2022-12-13T01:36:46.827Z,-1.90
2022-12-13T01:41:59.646Z,-1.90
2022-12-13T01:47:03.190Z,-1.90
2022-12-13T01:52:08.881Z,-1.90
2022-12-13T01:57:20.951Z,-1.90
2022-12-13T02:02:24.210Z,-1.90
2022-12-13T02:07:33.009Z,-1.80
2022-12-13T02:12:38.248Z,-1.70
2022-12-13T02:18:10.428Z,-1.70
2022-12-13T02:23:43.468Z,-1.60
2022-12-13T02:29:10.842Z,-1.50
2022-12-13T02:34:24.459Z,-1.50
2022-12-13T02:39:42.643Z,-1.40
2022-12-13T02:45:05.956Z,-1.40
2022-12-13T02:50:11.775Z,-1.50
2022-12-13T02:55:16.964Z,-1.60
2022-12-13T03:00:37.287Z,-1.60
2022-12-13T03:06:13.991Z,-1.60
2022-12-13T03:11:20.158Z,-1.60
2022-12-13T03:16:38.045Z,-1.60
2022-12-13T03:21:48.784Z,-1.60
2022-12-13T03:26:52.396Z,-1.60
2022-12-13T03:31:55.400Z,-1.60
2022-12-13T03:36:58.416Z,-1.70
2022-12-13T03:42:04.149Z,-1.80
2022-12-13T03:47:06.997Z,-1.90
2022-12-13T03:52:09.873Z,-2.00
2022-12-13T03:57:15.835Z,-2.10
2022-12-13T04:02:31.024Z,-2.20
2022-12-13T04:07:34.841Z,-2.30
2022-12-13T04:12:56.024Z,-2.40
2022-12-13T04:18:03.680Z,-2.40
2022-12-13T04:23:10.086Z,-2.50
2022-12-13T04:28:22.563Z,-2.50
2022-12-13T04:33:26.147Z,-2.60
2022-12-13T04:38:29.190Z,-2.60
2022-12-13T04:43:32.368Z,-2.70
2022-12-13T04:48:35.557Z,-2.70
2022-12-13T04:53:38.510Z,-2.80
2022-12-13T04:58:41.437Z,-2.80
2022-12-13T05:03:44.414Z,-2.90
2022-12-13T05:08:47.411Z,-3.00
2022-12-13T05:13:50.711Z,-3.00
2022-12-13T05:18:53.607Z,-3.10
2022-12-13T05:23:56.509Z,-3.20
2022-12-13T05:28:59.982Z,-3.30
2022-12-13T05:34:02.884Z,-3.30
2022-12-13T05:39:05.744Z,-3.30
2022-12-13T05:44:28.867Z,-3.40
2022-12-13T05:49:32.351Z,-3.40
2022-12-13T05:54:35.423Z,-3.50
2022-12-13T05:59:38.381Z,-3.60
2022-12-13T06:04:41.218Z,-3.60
2022-12-13T06:09:44.175Z,-3.70
2022-12-13T06:14:47.232Z,-3.70
2022-12-13T06:19:51.397Z,-3.70
2022-12-13T06:24:55.150Z,-3.70
2022-12-13T06:30:02.413Z,-3.80
2022-12-13T06:35:08.972Z,-3.80
2022-12-13T06:40:31.518Z,-3.80
2022-12-13T06:45:38.241Z,-3.90
2022-12-13T06:50:41.243Z,-3.80
2022-12-13T06:55:44.230Z,-3.70
2022-12-13T07:00:49.049Z,-3.50
2022-12-13T07:05:56.748Z,-3.40
2022-12-13T07:11:02.029Z,-3.30
2022-12-13T07:16:05.503Z,-3.20
2022-12-13T07:21:21.993Z,-3.10
2022-12-13T07:26:25.952Z,-3.00
2022-12-13T07:31:29.480Z,-3.00
2022-12-13T07:36:32.537Z,-2.80
2022-12-13T07:41:35.404Z,-2.40
2022-12-13T07:46:38.237Z,-1.90
2022-12-13T07:51:41.116Z,-1.50
2022-12-13T07:56:44.262Z,-1.20
2022-12-13T08:01:48.921Z,-0.80
2022-12-13T08:06:51.915Z,-0.40
2022-12-13T08:11:54.760Z,0.00
2022-12-13T08:16:58.041Z,0.60
2022-12-13T08:22:02.035Z,1.10
2022-12-13T08:27:05.740Z,1.50
2022-12-13T08:32:11.917Z,1.90
2022-12-13T08:37:14.878Z,2.40
2022-12-13T08:42:20.351Z,2.70
2022-12-13T08:47:27.051Z,3.10
2022-12-13T08:52:31.930Z,3.10
2022-12-13T08:57:43.362Z,2.70
2022-12-13T09:02:46.809Z,2.10
2022-12-13T09:07:49.780Z,1.60
2022-12-13T09:13:01.098Z,1.40
2022-12-13T09:18:05.675Z,1.70
2022-12-13T09:23:14.264Z,2.00
2022-12-13T09:28:29.262Z,1.90
2022-12-13T09:33:32.592Z,1.60
2022-12-13T09:38:45.294Z,1.50
2022-12-13T09:44:05.187Z,1.30
2022-12-13T09:49:35.879Z,1.10
2022-12-13T09:54:49.118Z,1.00
2022-12-13T09:59:55.901Z,1.00
2022-12-13T10:05:21.963Z,0.90
2022-12-13T10:10:27.899Z,0.90
2022-12-13T10:15:33.224Z,1.00
2022-12-13T10:20:36.987Z,1.00
2022-12-13T10:26:03.235Z,1.00
2022-12-13T10:31:07.813Z,1.10
2022-12-13T10:36:35.743Z,1.10
2022-12-13T10:41:39.990Z,1.20
2022-12-13T10:47:05.825Z,1.20
2022-12-13T10:52:32.359Z,1.50
2022-12-13T10:57:35.347Z,2.00
2022-12-13T11:02:41.748Z,2.10
2022-12-13T11:07:44.760Z,2.10
2022-12-13T11:12:49.510Z,2.00
2022-12-13T11:17:58.441Z,1.90
2022-12-13T11:23:13.185Z,1.90
2022-12-13T11:28:49.118Z,1.80
2022-12-13T11:34:13.528Z,1.80
2022-12-13T11:39:31.126Z,1.80
2022-12-13T11:45:23.406Z,1.80
2022-12-13T11:50:38.328Z,1.80
2022-12-13T11:55:50.098Z,1.80
2022-12-13T12:01:10.625Z,1.80
2022-12-13T12:06:27.355Z,1.80
2022-12-13T12:11:41.823Z,1.80
2022-12-13T12:16:51.820Z,1.80
2022-12-13T12:22:18.755Z,1.80
2022-12-13T12:27:54.441Z,1.70
2022-12-13T12:33:04.460Z,1.70
2022-12-13T12:38:58.730Z,1.70
2022-12-13T12:44:15.312Z,1.70
2022-12-13T12:49:32.785Z,1.70
2022-12-13T12:55:13.349Z,1.70
2022-12-13T13:00:23.348Z,1.70
2022-12-13T13:05:49.408Z,1.70
2022-12-13T13:10:53.425Z,1.70
2022-12-13T13:16:06.064Z,1.60
2022-12-13T13:21:24.226Z,1.60
2022-12-13T13:26:35.975Z,1.60
2022-12-13T13:32:05.262Z,1.50
2022-12-13T13:37:22.831Z,1.50
2022-12-13T13:42:31.012Z,1.40
2022-12-13T13:47:40.267Z,1.40
2022-12-13T13:52:58.011Z,1.40
2022-12-13T13:58:57.795Z,1.30
2022-12-13T14:04:22.785Z,1.20
2022-12-13T14:10:20.281Z,1.10
2022-12-13T14:15:59.269Z,1.00
2022-12-13T14:21:26.907Z,0.80
2022-12-13T14:27:00.139Z,0.70
2022-12-13T14:32:31.371Z,0.50
2022-12-13T14:37:37.807Z,0.40
2022-12-13T14:42:42.406Z,0.20
2022-12-13T14:47:54.445Z,0.10
2022-12-13T14:52:58.021Z,-0.10
2022-12-13T14:58:16.558Z,-0.20
2022-12-13T15:03:26.658Z,-0.40
2022-12-13T15:08:38.118Z,-0.60
2022-12-13T15:13:52.679Z,-0.70
2022-12-13T15:19:30.120Z,-0.80
2022-12-13T15:24:47.056Z,-0.90
2022-12-13T15:29:51.410Z,-1.10
2022-12-13T15:34:55.675Z,-1.20
2022-12-13T15:40:09.053Z,-1.30
2022-12-13T15:45:28.262Z,-1.40
2022-12-13T15:50:45.197Z,-1.50
2022-12-13T15:55:51.743Z,-1.60
2022-12-13T16:00:54.945Z,-1.70
2022-12-13T16:05:58.180Z,-1.80
2022-12-13T16:11:01.490Z,-1.90
2022-12-13T16:16:28.588Z,-2.00
2022-12-13T16:21:31.575Z,-2.00
2022-12-13T16:26:34.957Z,-2.00
2022-12-13T16:31:38.008Z,-2.10
2022-12-13T16:36:41.126Z,-2.20
2022-12-13T16:41:47.907Z,-2.30
2022-12-13T16:47:15.287Z,-2.40
2022-12-13T16:52:13.814Z,-2.50
2022-12-13T16:57:16.760Z,-2.60
2022-12-13T17:02:20.374Z,-2.60
2022-12-13T17:07:23.761Z,-2.70
2022-12-13T17:12:26.697Z,-2.80
2022-12-13T17:17:29.466Z,-2.80
2022-12-13T17:22:32.774Z,-2.80
2022-12-13T17:27:36.296Z,-2.90
2022-12-13T17:32:39.212Z,-2.90
2022-12-13T17:37:43.496Z,-3.00
2022-12-13T17:42:50.957Z,-3.10
2022-12-13T17:47:53.919Z,-3.10
2022-12-13T17:52:56.843Z,-3.20
2022-12-13T17:58:04.281Z,-3.10
2022-12-13T18:03:07.560Z,-3.20
2022-12-13T18:08:10.615Z,-3.20
2022-12-13T18:13:13.460Z,-3.30
2022-12-13T18:18:16.861Z,-3.30
2022-12-13T18:23:20.037Z,-3.40
2022-12-13T18:28:23.051Z,-3.50
2022-12-13T18:33:26.349Z,-3.50
2022-12-13T18:38:36.232Z,-3.60
2022-12-13T18:43:39.903Z,-3.70
2022-12-13T18:48:43.273Z,-3.70
2022-12-13T18:53:46.307Z,-3.70
2022-12-13T18:58:50.484Z,-3.80
2022-12-13T19:03:54.991Z,-3.80
2022-12-13T19:08:59.213Z,-3.90
2022-12-13T19:14:02.268Z,-3.90
2022-12-13T19:19:07.073Z,-4.00
2022-12-13T19:24:13.857Z,-4.10
2022-12-13T19:29:16.969Z,-4.10
2022-12-13T19:34:20.177Z,-4.20
2022-12-13T19:39:24.072Z,-4.30
2022-12-13T19:44:27.088Z,-4.30
2022-12-13T19:49:30.242Z,-4.40
2022-12-13T19:54:32.935Z,-4.40
2022-12-13T19:59:35.893Z,-4.50
2022-12-13T20:04:38.844Z,-4.50
2022-12-13T20:09:42.002Z,-4.60
2022-12-13T20:14:44.891Z,-4.60
2022-12-13T20:19:47.859Z,-4.70
2022-12-13T20:24:51.071Z,-4.70
2022-12-13T20:29:55.711Z,-4.70
2022-12-13T20:34:58.701Z,-4.80
2022-12-13T20:40:01.655Z,-4.80
2022-12-13T20:45:05.627Z,-4.80
2022-12-13T20:50:08.953Z,-4.90
2022-12-13T20:55:13.815Z,-4.90
2022-12-13T21:00:17.831Z,-4.90
2022-12-13T21:05:21.819Z,-4.90
2022-12-13T21:10:24.750Z,-4.90
2022-12-13T21:15:27.824Z,-4.90
2022-12-13T21:20:31.235Z,-5.00
2022-12-13T21:25:34.100Z,-5.00
2022-12-13T21:30:37.186Z,-5.10
2022-12-13T21:35:40.310Z,-5.10
2022-12-13T21:40:49.623Z,-5.10
2022-12-13T21:45:52.757Z,-5.20
2022-12-13T21:50:55.847Z,-5.20
2022-12-13T21:56:17.663Z,-5.30
2022-12-13T22:01:20.700Z,-5.30
2022-12-13T22:06:23.534Z,-5.30
2022-12-13T22:11:26.412Z,-5.40
2022-12-13T22:16:29.751Z,-5.40
2022-12-13T22:21:32.769Z,-5.40
2022-12-13T22:26:37.500Z,-5.40
2022-12-13T22:31:41.262Z,-5.50
2022-12-13T22:36:44.736Z,-5.50
2022-12-13T22:41:49.756Z,-5.50
2022-12-13T22:46:52.661Z,-5.50
2022-12-13T22:51:55.614Z,-5.40
2022-12-13T22:56:58.392Z,-5.40
2022-12-13T23:02:03.004Z,-5.40
2022-12-13T23:07:06.840Z,-5.40
2022-12-13T23:12:30.055Z,-5.40
2022-12-13T23:17:33.004Z,-5.40
2022-12-13T23:22:35.991Z,-5.40
2022-12-13T23:27:38.921Z,-5.50
2022-12-13T23:32:41.751Z,-5.60
2022-12-13T23:37:44.459Z,-5.60
2022-12-13T23:42:51.704Z,-5.50
2022-12-13T23:47:54.548Z,-5.50
2022-12-13T23:52:57.237Z,-5.40
2022-12-13T23:58:00.081Z,-5.30
